Sign-in with your pilot id or email, or register

ICAO: LOWS Name / Country: Salzburg / Austria
Latitude: 47.7933 Longitude: 13.0043
Total Arrivals:
Deprecated: Non-static method AirportData::getarrflights() should not be called statically, assuming $this from incompatible context in /var/www/customers/vh-7192/web/home/phpvms/core/templates/airport_info.tpl on line 18
21
Total Departures:
Deprecated: Non-static method AirportData::getdeptflights() should not be called statically, assuming $this from incompatible context in /var/www/customers/vh-7192/web/home/phpvms/core/templates/airport_info.tpl on line 21
28
Latest Arrival: MTA602 (LHBP-LOWS) Tibor Berces Latest Departure: MTAMA602 (LOWS-ESSA) Laszlo Bartucz
Metar: LOWS 061750Z VRB01KT 9999 FEW012 SCT030 BKN060 01/00 Q1014 NOSIG
More info

Charts for LOWS


NOTAM


Warning: file_get_contents(http://api.vateud.net/notams/LOWS.json): failed to open stream: HTTP request failed! HTTP/1.1 404 Not Found in /var/www/customers/vh-7192/web/home/phpvms/core/common/NOTAMSData.class.php on line 18

Warning: Invalid argument supplied for foreach() in /var/www/customers/vh-7192/web/home/phpvms/core/common/NOTAMSData.class.php on line 22

Salzburg